Time;durP1;ratioP1;P1;durP2;ratioP2;P2;SDS_P1;SDS_P2;PMS_P1;PMS_P2;Temp;Humidity;BMP_temperature;BMP_pressure;BME280_temperature;BME280_humidity;BME280_pressure;Samples;Min_cycle;Max_cycle;Signal;HPM_P1;HPM_P2
2022/03/19 00:02:18;;;;;;;43.57;28.83;;;9.80;59.50;9.80;98465.00;;;;4952334;28;20297;-86
2022/03/19 00:04:45;;;;;;;41.90;28.23;;;9.80;59.50;9.80;98463.00;;;;4952683;29;20610;-85
2022/03/19 00:07:16;;;;;;;40.60;28.63;;;9.70;59.50;9.80;98470.00;;;;4952804;28;20227;-89
2022/03/19 00:09:44;;;;;;;43.30;29.77;;;9.80;59.90;9.80;98473.00;;;;4952620;29;20534;-86
2022/03/19 00:12:14;;;;;;;45.13;29.50;;;9.70;59.70;9.80;98464.00;;;;4952255;28;20291;-86
2022/03/19 00:14:42;;;;;;;41.90;29.13;;;9.70;59.70;9.80;98454.00;;;;4952257;28;20661;-86
2022/03/19 00:17:10;;;;;;;41.67;28.40;;;9.70;59.70;9.80;98469.00;;;;4952158;28;20203;-86
2022/03/19 00:19:38;;;;;;;42.03;28.33;;;9.70;59.80;9.80;98456.00;;;;4952297;28;20211;-86
2022/03/19 00:22:05;;;;;;;44.37;30.10;;;9.80;60.00;9.80;98454.00;;;;4952444;28;20652;-86
2022/03/19 00:24:36;;;;;;;40.27;28.83;;;9.70;60.70;9.80;98456.00;;;;4952192;28;20701;-86
2022/03/19 00:27:07;;;;;;;42.67;28.60;;;9.70;60.00;9.70;98450.00;;;;4952541;29;20188;-86
2022/03/19 00:29:34;;;;;;;39.37;28.10;;;9.70;60.00;9.70;98453.00;;;;4952129;29;20200;-86
2022/03/19 00:32:04;;;;;;;41.60;28.23;;;9.60;59.90;9.70;98449.00;;;;4952211;28;20229;-86
2022/03/19 00:34:32;;;;;;;45.10;27.67;;;9.60;59.90;9.70;98450.00;;;;4952215;28;20641;-86
2022/03/19 00:36:59;;;;;;;40.27;27.40;;;9.50;59.80;9.60;98448.00;;;;4952365;28;20231;-87
2022/03/19 00:39:27;;;;;;;43.23;28.80;;;9.60;59.90;9.60;98449.00;;;;4951925;28;20208;-86
2022/03/19 00:41:55;;;;;;;43.17;27.60;;;9.50;60.00;9.60;98445.00;;;;4951768;28;20299;-86
2022/03/19 00:44:25;;;;;;;39.60;26.87;;;9.50;60.00;9.60;98445.00;;;;4951902;28;20310;-86
2022/03/19 00:46:55;;;;;;;41.23;28.67;;;9.50;60.10;9.50;98453.00;;;;4952385;28;20203;-86
2022/03/19 00:49:22;;;;;;;41.63;27.57;;;9.50;60.00;9.50;98433.00;;;;4952427;28;20266;-86
2022/03/19 00:51:49;;;;;;;39.97;27.67;;;9.50;60.00;9.50;98433.00;;;;4951782;28;20211;-88
2022/03/19 00:54:16;;;;;;;37.93;26.90;;;9.50;60.10;9.50;98434.00;;;;4951766;28;20220;-86
2022/03/19 00:56:45;;;;;;;40.83;27.10;;;9.40;60.10;9.50;98434.00;;;;4952330;28;20299;-89
2022/03/19 00:59:14;;;;;;;39.17;26.87;;;9.40;60.30;9.50;98432.00;;;;4951339;28;20291;-86
2022/03/19 01:01:41;;;;;;;40.53;27.43;;;9.40;60.20;9.50;98430.00;;;;4951686;28;20215;-86
2022/03/19 01:04:08;;;;;;;41.40;27.03;;;9.40;60.00;9.40;98438.00;;;;4951468;28;20224;-86
2022/03/19 01:06:36;;;;;;;38.90;27.00;;;9.40;60.10;9.40;98427.00;;;;4951439;28;20211;-86
2022/03/19 01:09:06;;;;;;;39.37;26.23;;;9.40;59.90;9.40;98424.00;;;;4951438;28;20315;-85
2022/03/19 01:11:37;;;;;;;42.90;28.47;;;9.30;60.10;9.40;98425.00;;;;4951426;29;20237;-89
2022/03/19 01:14:05;;;;;;;41.07;26.30;;;9.30;60.00;9.30;98417.00;;;;4950631;28;20220;-86
2022/03/19 01:16:33;;;;;;;38.20;25.10;;;9.30;60.00;9.30;98423.00;;;;4951515;28;20564;-86
2022/03/19 01:19:01;;;;;;;41.40;27.07;;;9.30;60.00;9.30;98419.00;;;;4951481;28;20295;-86
2022/03/19 01:21:28;;;;;;;36.63;25.77;;;9.20;60.00;9.30;98416.00;;;;4951554;29;20261;-86
2022/03/19 01:23:55;;;;;;;37.47;26.03;;;9.20;60.10;9.20;98416.00;;;;4951305;28;20669;-86
2022/03/19 01:26:24;;;;;;;37.07;25.17;;;9.20;60.10;9.20;98412.00;;;;4951272;28;20203;-86
2022/03/19 01:28:54;;;;;;;38.10;25.53;;;9.20;60.20;9.20;98410.00;;;;4950811;28;20765;-86
2022/03/19 01:31:25;;;;;;;36.40;25.33;;;9.10;60.30;9.20;98413.00;;;;4951020;28;20235;-86
2022/03/19 01:33:57;;;;;;;38.63;26.10;;;9.10;60.20;9.20;98410.00;;;;4951400;28;20307;-86
2022/03/19 01:36:24;;;;;;;39.37;25.60;;;9.10;60.20;9.10;98408.00;;;;4951165;28;20189;-88
2022/03/19 01:38:54;;;;;;;38.93;26.67;;;9.10;60.20;9.10;98404.00;;;;4951327;28;20203;-86
2022/03/19 01:41:21;;;;;;;39.03;25.93;;;9.00;60.20;9.10;98411.00;;;;4950885;28;20294;-86
2022/03/19 01:43:48;;;;;;;36.53;25.33;;;9.00;60.30;9.00;98400.00;;;;4950982;28;20336;-85
2022/03/19 01:46:15;;;;;;;35.20;24.13;;;9.80;60.90;9.00;98405.00;;;;4951487;28;20288;-86
2022/03/19 01:48:42;;;;;;;37.60;23.93;;;8.90;60.30;9.00;98400.00;;;;4950732;28;20259;-86
2022/03/19 01:51:10;;;;;;;36.17;24.30;;;8.90;60.30;8.90;98401.00;;;;4951065;28;20204;-86
2022/03/19 01:53:37;;;;;;;36.87;25.23;;;8.90;60.40;8.90;98397.00;;;;4951024;28;20228;-86
2022/03/19 01:56:05;;;;;;;37.10;24.47;;;8.80;60.40;8.90;98402.00;;;;4950820;28;20704;-89
2022/03/19 01:58:39;;;;;;;32.80;22.70;;;8.80;60.50;8.90;98393.00;;;;4950835;28;20228;-86
2022/03/19 02:01:12;;;;;;;34.43;23.37;;;8.80;60.40;8.80;98408.00;;;;4950945;28;20184;-85
2022/03/19 02:03:43;;;;;;;31.77;21.33;;;8.70;60.20;8.80;98402.00;;;;4950797;28;20311;-86
2022/03/19 02:06:13;;;;;;;32.40;22.67;;;8.70;60.20;8.80;98401.00;;;;4950776;29;20220;-86
2022/03/19 02:08:42;;;;;;;30.43;21.30;;;8.70;60.20;8.70;98393.00;;;;4950583;28;20242;-86
2022/03/19 02:11:10;;;;;;;33.90;21.73;;;8.70;60.30;8.70;98378.00;;;;4950865;28;20223;-86
2022/03/19 02:13:37;;;;;;;35.50;23.07;;;8.60;60.40;8.70;98383.00;;;;4950849;28;20315;-86
2022/03/19 02:16:04;;;;;;;31.07;21.67;;;8.60;60.40;8.70;98382.00;;;;4950977;28;20244;-86
2022/03/19 02:18:34;;;;;;;30.77;21.50;;;8.60;60.40;8.60;98381.00;;;;4950733;28;20206;-89
2022/03/19 02:21:01;;;;;;;29.63;20.50;;;8.60;60.20;8.60;98376.00;;;;4950647;28;20679;-86
2022/03/19 02:26:15;;;;;;;32.77;21.73;;;8.50;60.30;8.50;98374.00;;;;4950849;28;20386;-86
2022/03/19 02:28:42;;;;;;;30.17;21.13;;;8.50;60.10;8.50;98361.00;;;;4954037;28;20219;-86
2022/03/19 02:31:09;;;;;;;31.00;22.20;;;8.40;60.10;8.50;98357.00;;;;4953721;28;20204;-86
2022/03/19 02:33:37;;;;;;;30.33;21.40;;;8.40;60.10;8.40;98347.00;;;;4953910;28;20220;-86
2022/03/19 02:36:04;;;;;;;31.27;20.87;;;8.40;60.20;8.40;98345.00;;;;4953677;28;20250;-88
2022/03/19 02:38:33;;;;;;;32.00;21.90;;;8.30;60.20;8.40;98343.00;;;;4953493;28;20751;-88
2022/03/19 02:41:04;;;;;;;32.27;21.13;;;8.30;60.30;8.30;98340.00;;;;4953323;28;20253;-87
2022/03/19 02:43:31;;;;;;;32.00;22.27;;;8.60;60.50;8.30;98330.00;;;;4953151;28;20239;-86
2022/03/19 02:45:59;;;;;;;30.10;20.73;;;8.20;60.20;8.20;98339.00;;;;4953784;28;20208;-86
2022/03/19 02:48:26;;;;;;;33.13;21.93;;;8.20;60.20;8.20;98337.00;;;;4953445;29;20291;-87
2022/03/19 02:50:53;;;;;;;33.03;21.30;;;8.10;60.20;8.10;98349.00;;;;4953257;28;20200;-85
2022/03/19 02:53:20;;;;;;;32.13;22.27;;;8.10;60.20;8.10;98335.00;;;;4953203;28;20207;-87
2022/03/19 02:55:49;;;;;;;30.90;21.23;;;8.00;60.30;8.10;98340.00;;;;4953299;29;20290;-86
2022/03/19 02:58:16;;;;;;;33.00;21.60;;;8.00;60.40;8.00;98335.00;;;;4953263;28;20303;-86
2022/03/19 03:00:43;;;;;;;33.97;21.63;;;7.90;60.20;8.00;98335.00;;;;4953334;28;20215;-87
2022/03/19 03:03:10;;;;;;;30.67;21.57;;;7.90;60.40;7.90;98341.00;;;;4953251;29;20227;-86
2022/03/19 03:05:38;;;;;;;31.77;20.97;;;7.90;60.40;7.90;98325.00;;;;4953200;28;20291;-86
2022/03/19 03:08:06;;;;;;;30.17;20.70;;;7.80;60.40;7.80;98334.00;;;;4953394;28;20204;-86
2022/03/19 03:10:34;;;;;;;33.37;21.63;;;7.80;60.70;7.80;98335.00;;;;4953063;28;20312;-87
2022/03/19 03:13:03;;;;;;;30.47;21.03;;;7.70;60.50;7.70;98334.00;;;;4952840;28;20208;-86
2022/03/19 03:15:30;;;;;;;31.50;21.23;;;7.70;60.70;7.70;98334.00;;;;4953120;28;20301;-85
2022/03/19 03:18:01;;;;;;;31.73;21.23;;;7.70;60.60;7.70;98332.00;;;;4952987;28;20215;-86
2022/03/19 03:20:28;;;;;;;30.37;20.23;;;7.60;60.60;7.60;98336.00;;;;4953159;28;20189;-85
2022/03/19 03:22:55;;;;;;;28.47;18.63;;;7.60;60.60;7.60;98319.00;;;;4952899;28;20289;-88
2022/03/19 03:25:22;;;;;;;28.77;19.93;;;7.60;60.70;7.60;98323.00;;;;4952790;28;20626;-86
2022/03/19 03:27:49;;;;;;;27.87;19.23;;;7.60;60.60;7.60;98321.00;;;;4953303;29;20210;-88
2022/03/19 03:30:18;;;;;;;27.67;19.13;;;7.60;60.50;7.60;98321.00;;;;4953415;28;20323;-86
2022/03/19 03:32:45;;;;;;;27.20;19.30;;;7.60;60.50;7.60;98323.00;;;;4952942;29;20232;-89
2022/03/19 03:35:12;;;;;;;24.23;17.20;;;7.60;60.60;7.60;98316.00;;;;4952873;28;20251;-86
2022/03/19 03:37:39;;;;;;;27.37;17.47;;;7.60;60.40;7.60;98321.00;;;;4952433;28;20200;-87
2022/03/19 03:40:08;;;;;;;26.63;17.80;;;7.60;60.40;7.60;98317.00;;;;4952654;28;20291;-85
2022/03/19 03:42:40;;;;;;;24.07;17.27;;;7.60;60.40;7.60;98312.00;;;;4952514;28;20200;-87
2022/03/19 03:45:10;;;;;;;22.87;16.57;;;7.60;60.30;7.60;98316.00;;;;4952673;28;20259;-85
2022/03/19 03:47:38;;;;;;;24.77;16.17;;;7.60;60.20;7.60;98307.00;;;;4952674;28;20200;-86
2022/03/19 03:50:06;;;;;;;21.67;15.77;;;7.60;60.00;7.60;98307.00;;;;4952767;28;20228;-86
2022/03/19 03:52:33;;;;;;;23.70;15.70;;;7.60;59.90;7.60;98310.00;;;;4952525;28;20266;-86
2022/03/19 03:55:00;;;;;;;22.30;15.37;;;7.60;59.80;7.60;98311.00;;;;4952503;28;20840;-86
2022/03/19 03:57:28;;;;;;;22.87;15.13;;;7.60;59.60;7.70;98310.00;;;;4952623;28;20208;-85
2022/03/19 03:59:55;;;;;;;21.43;14.83;;;7.70;59.60;7.60;98306.00;;;;4952564;28;20651;-86
2022/03/19 04:02:22;;;;;;;21.43;15.37;;;7.70;59.50;7.70;98295.00;;;;4952742;28;20219;-86
2022/03/19 04:04:51;;;;;;;24.73;16.93;;;7.70;60.00;7.60;98298.00;;;;4952174;28;20278;-86
2022/03/19 04:07:18;;;;;;;23.00;15.00;;;7.70;59.90;7.70;98307.00;;;;4953167;28;20284;-86
2022/03/19 04:09:45;;;;;;;23.27;16.27;;;7.70;59.30;7.70;98304.00;;;;4952495;28;20589;-86
2022/03/19 04:12:12;;;;;;;21.43;16.10;;;7.70;59.20;7.70;98300.00;;;;4952413;28;20242;-87
2022/03/19 04:14:39;;;;;;;20.77;14.47;;;7.70;59.10;7.60;98288.00;;;;4952191;28;20231;-84
2022/03/19 04:17:07;;;;;;;22.83;15.50;;;7.70;59.10;7.60;98306.00;;;;4952818;28;20253;-84
2022/03/19 04:19:34;;;;;;;23.27;15.50;;;7.70;59.10;7.70;98291.00;;;;4952400;28;20617;-84
2022/03/19 04:22:02;;;;;;;20.63;15.17;;;7.70;59.00;7.60;98294.00;;;;4952169;28;20204;-84
2022/03/19 04:24:29;;;;;;;21.77;15.83;;;7.70;59.10;7.60;98289.00;;;;4951973;28;20311;-84
2022/03/19 04:26:57;;;;;;;23.70;16.73;;;7.70;59.00;7.60;98288.00;;;;4952185;28;20250;-84
2022/03/19 04:29:25;;;;;;;21.10;15.70;;;7.70;58.90;7.60;98289.00;;;;4952579;28;20235;-84
2022/03/19 04:31:52;;;;;;;25.07;16.37;;;7.70;58.90;7.60;98285.00;;;;4952269;28;20283;-84
2022/03/19 04:34:19;;;;;;;21.60;15.60;;;7.60;58.80;7.60;98273.00;;;;4952120;28;20224;-84
2022/03/19 04:36:46;;;;;;;24.27;14.90;;;7.70;58.90;7.60;98283.00;;;;4952133;28;20660;-84
2022/03/19 04:39:14;;;;;;;22.47;14.97;;;7.70;58.80;7.60;98279.00;;;;4952518;28;20725;-84
2022/03/19 04:41:42;;;;;;;28.33;15.10;;;7.80;58.80;7.60;98270.00;;;;4952508;28;20204;-84
2022/03/19 04:44:10;;;;;;;21.63;15.03;;;7.70;58.70;7.60;98265.00;;;;4952230;28;20309;-84
2022/03/19 04:46:38;;;;;;;19.73;13.27;;;7.60;58.60;7.60;98271.00;;;;4951885;29;20231;-84
2022/03/19 04:49:05;;;;;;;22.90;14.37;;;7.60;58.50;7.60;98265.00;;;;4951519;28;20304;-84
2022/03/19 04:51:36;;;;;;;20.40;14.00;;;7.60;58.50;7.60;98268.00;;;;4951610;28;20295;-83
2022/03/19 04:54:11;;;;;;;20.70;14.27;;;7.60;58.50;7.60;98267.00;;;;4951524;28;20225;-84
2022/03/19 04:56:41;;;;;;;21.70;13.67;;;7.60;58.40;7.60;98274.00;;;;4952214;28;20295;-84
2022/03/19 04:59:11;;;;;;;17.83;13.30;;;7.60;58.40;7.60;98263.00;;;;4952617;28;20299;-84
2022/03/19 05:01:39;;;;;;;18.27;12.77;;;7.60;58.40;7.60;98266.00;;;;4952351;29;20184;-84
2022/03/19 05:04:06;;;;;;;19.17;13.23;;;7.60;58.30;7.60;98272.00;;;;4951414;28;20224;-84
2022/03/19 05:06:33;;;;;;;20.23;13.53;;;8.40;58.60;7.60;98271.00;;;;4951727;28;20296;-83
2022/03/19 05:11:46;;;;;;;17.63;12.93;;;8.30;58.50;7.50;98268.00;;;;4951881;29;20210;-84
2022/03/19 05:14:13;;;;;;;17.13;13.30;;;7.50;58.10;7.50;98273.00;;;;4951288;28;20556;-84
2022/03/19 05:16:40;;;;;;;19.43;13.00;;;7.50;58.20;7.50;98279.00;;;;4951141;28;20287;-84
2022/03/19 05:19:08;;;;;;;18.10;13.43;;;7.50;58.20;7.50;98279.00;;;;4951851;28;20200;-84
2022/03/19 05:21:35;;;;;;;19.07;13.40;;;7.50;58.20;7.50;98279.00;;;;4951358;28;20728;-84
2022/03/19 05:24:02;;;;;;;20.07;13.80;;;7.50;58.20;7.50;98268.00;;;;4951204;28;20708;-83
2022/03/19 05:26:29;;;;;;;17.53;12.40;;;7.40;58.10;7.40;98269.00;;;;4951321;28;20200;-84
2022/03/19 05:28:57;;;;;;;17.70;13.03;;;7.40;58.10;7.40;98267.00;;;;4951369;28;20295;-84
2022/03/19 05:31:25;;;;;;;18.77;13.37;;;7.40;58.20;7.40;98262.00;;;;4951121;28;20747;-84
2022/03/19 05:36:38;;;;;;;18.87;13.10;;;7.40;58.20;7.40;98262.00;;;;4951315;29;20578;-84
2022/03/19 05:39:05;;;;;;;17.53;12.70;;;7.40;58.10;7.40;98254.00;;;;4951307;28;20214;-84
2022/03/19 05:41:32;;;;;;;16.40;12.93;;;7.30;58.00;7.30;98260.00;;;;4951112;28;20204;-84
2022/03/19 05:44:01;;;;;;;18.57;12.87;;;7.30;58.00;7.30;98262.00;;;;4962615;23;20703;-84
2022/03/19 05:46:28;;;;;;;18.40;14.00;;;7.30;58.00;7.30;98251.00;;;;4951748;29;20204;-84
2022/03/19 05:48:55;;;;;;;18.00;12.60;;;7.30;58.00;7.30;98255.00;;;;4951661;28;20208;-84
2022/03/19 05:51:22;;;;;;;21.27;13.63;;;7.40;58.10;7.30;98252.00;;;;4951424;28;20311;-85
2022/03/19 05:53:49;;;;;;;19.43;13.53;;;7.30;58.00;7.30;98253.00;;;;4951457;28;20307;-84
2022/03/19 05:56:17;;;;;;;16.97;12.40;;;7.30;58.00;7.30;98258.00;;;;4951550;28;20715;-85
2022/03/19 05:58:45;;;;;;;18.67;12.40;;;7.40;58.10;7.30;98254.00;;;;4951246;28;20204;-84
2022/03/19 06:01:14;;;;;;;18.60;11.97;;;7.20;58.10;7.30;98249.00;;;;4953035;28;20638;-85
2022/03/19 06:03:41;;;;;;;18.97;12.60;;;7.30;58.10;7.30;98252.00;;;;4954796;28;20220;-83
2022/03/19 06:06:08;;;;;;;19.20;13.27;;;7.30;58.10;7.30;98249.00;;;;4954745;28;20234;-85
2022/03/19 06:08:35;;;;;;;17.33;12.33;;;7.30;58.00;7.30;98252.00;;;;4954592;28;20254;-83
2022/03/19 06:11:02;;;;;;;17.73;12.77;;;7.30;58.00;7.30;98248.00;;;;4954573;28;20664;-84
2022/03/19 06:13:29;;;;;;;18.97;12.43;;;7.30;57.90;7.30;98253.00;;;;4954785;28;20255;-84
2022/03/19 06:15:57;;;;;;;19.03;13.23;;;7.30;57.90;7.40;98240.00;;;;4954842;28;20212;-85
2022/03/19 06:18:25;;;;;;;17.00;12.53;;;7.30;57.90;7.40;98245.00;;;;4954422;28;20619;-84
2022/03/19 06:20:53;;;;;;;16.37;11.73;;;7.40;58.00;7.40;98249.00;;;;4954467;28;20284;-85
2022/03/19 06:23:20;;;;;;;18.93;12.93;;;7.40;57.90;7.40;98237.00;;;;4953840;28;20235;-85
2022/03/19 06:25:47;;;;;;;18.07;12.97;;;7.40;57.90;7.50;98234.00;;;;4954439;28;20629;-84
2022/03/19 06:28:14;;;;;;;17.23;13.03;;;7.40;57.80;7.50;98236.00;;;;4954119;28;20196;-84
2022/03/19 06:30:41;;;;;;;18.57;12.30;;;7.50;57.80;7.50;98245.00;;;;4954215;28;20251;-85
2022/03/19 06:33:09;;;;;;;18.47;13.10;;;7.50;57.90;7.60;98244.00;;;;4954156;28;20239;-85
2022/03/19 06:38:28;;;;;;;18.83;12.77;;;7.60;57.80;7.60;98234.00;;;;4954315;29;20183;-84
2022/03/19 06:40:55;;;;;;;18.20;12.67;;;7.60;57.70;7.70;98221.00;;;;4954296;28;20698;-85
2022/03/19 06:43:23;;;;;;;15.60;11.40;;;7.70;57.80;7.70;98227.00;;;;4954578;28;20243;-84
2022/03/19 06:45:50;;;;;;;18.53;11.90;;;7.70;57.80;7.80;98235.00;;;;4954245;28;20196;-84
2022/03/19 06:48:17;;;;;;;18.63;13.03;;;7.70;57.80;7.80;98231.00;;;;4954112;28;20290;-85
2022/03/19 06:50:46;;;;;;;19.50;12.67;;;8.10;57.90;7.90;98226.00;;;;4953875;28;20277;-84
2022/03/19 06:53:13;;;;;;;16.33;12.07;;;7.80;57.80;7.90;98221.00;;;;4953759;28;20224;-84
2022/03/19 06:55:40;;;;;;;19.03;13.10;;;7.90;57.70;8.00;98236.00;;;;4954065;28;20832;-85
2022/03/19 06:58:07;;;;;;;17.03;12.33;;;7.90;57.60;8.00;98230.00;;;;4954299;28;20249;-84
2022/03/19 07:00:35;;;;;;;16.03;12.10;;;8.00;57.70;8.10;98230.00;;;;4954447;28;20243;-84
2022/03/19 07:03:03;;;;;;;18.20;12.47;;;8.00;57.70;8.20;98221.00;;;;4954155;28;20304;-84
2022/03/19 07:05:31;;;;;;;17.23;11.97;;;8.10;57.70;8.20;98227.00;;;;4953983;28;20302;-85
2022/03/19 07:08:02;;;;;;;17.83;12.47;;;8.10;57.60;8.30;98218.00;;;;4954131;28;20250;-85
2022/03/19 07:10:30;;;;;;;15.83;11.93;;;8.20;57.50;8.40;98219.00;;;;4953683;28;20299;-84
2022/03/19 07:12:58;;;;;;;18.47;12.50;;;8.30;57.70;8.40;98219.00;;;;4946251;28;20741;-84
2022/03/19 07:15:28;;;;;;;17.47;11.73;;;8.30;57.70;8.50;98221.00;;;;4934551;28;20225;-84
2022/03/19 07:18:00;;;;;;;16.93;12.67;;;8.40;57.60;8.60;98222.00;;;;4934466;28;20205;-84
2022/03/19 07:20:29;;;;;;;18.17;11.77;;;8.40;57.60;8.70;98227.00;;;;4934800;28;20205;-85
2022/03/19 07:23:00;;;;;;;18.27;12.60;;;8.50;57.60;8.70;98219.00;;;;4934872;28;20213;-85
2022/03/19 07:25:30;;;;;;;17.40;12.37;;;8.50;57.50;8.80;98227.00;;;;4934880;28;20256;-85
2022/03/19 07:27:59;;;;;;;19.47;12.93;;;8.50;57.30;8.80;98222.00;;;;4934580;28;20213;-85
2022/03/19 07:30:27;;;;;;;17.43;12.40;;;8.70;57.40;8.90;98223.00;;;;4934179;28;20225;-85
2022/03/19 07:32:54;;;;;;;18.93;13.30;;;8.70;57.40;9.00;98227.00;;;;4934430;28;20196;-84
2022/03/19 07:35:22;;;;;;;17.63;12.00;;;8.80;57.20;9.00;98230.00;;;;4934449;28;20229;-84
2022/03/19 07:37:50;;;;;;;19.20;13.40;;;8.90;57.20;9.10;98223.00;;;;4934540;29;20209;-85
2022/03/19 07:41:45;;;;;;;16.93;12.67;;;8.90;56.90;9.20;98217.00;;;;4934376;28;20269;-85
2022/03/19 07:43:09;;;;;;;17.87;12.60;;;9.00;57.00;9.30;98224.00;;;;4933904;28;20593;-84
2022/03/19 07:45:37;;;;;;;18.87;12.73;;;9.10;57.10;9.40;98211.00;;;;4934351;28;20204;-84
2022/03/19 07:48:06;;;;;;;16.83;12.13;;;9.30;57.30;9.60;98215.00;;;;4935136;28;20724;-85
2022/03/19 07:50:34;;;;;;;15.53;11.90;;;9.30;57.50;9.70;98207.00;;;;4934269;28;20231;-87
2022/03/19 07:53:01;;;;;;;17.13;11.97;;;9.50;57.70;9.90;98207.00;;;;4934521;28;20592;-86
2022/03/19 07:55:30;;;;;;;15.67;12.03;;;9.60;57.80;10.10;98212.00;;;;4934049;28;20231;-85
2022/03/19 07:57:57;;;;;;;17.00;12.50;;;9.70;57.80;10.30;98206.00;;;;4934241;28;20224;-86
2022/03/19 08:00:25;;;;;;;14.60;11.73;;;9.90;57.60;10.50;98208.00;;;;4934878;28;20555;-85
2022/03/19 08:02:52;;;;;;;16.30;12.33;;;10.10;57.40;10.70;98203.00;;;;4934301;28;20213;-85
2022/03/19 08:05:19;;;;;;;17.23;11.90;;;10.30;57.70;10.90;98209.00;;;;4934253;28;20231;-85
2022/03/19 08:07:46;;;;;;;17.67;11.80;;;10.50;57.00;11.10;98201.00;;;;4934937;28;20208;-85
2022/03/19 08:10:15;;;;;;;16.67;11.47;;;10.60;56.70;11.30;98201.00;;;;4934033;28;20660;-86
2022/03/19 08:12:44;;;;;;;15.90;11.30;;;10.80;56.40;11.50;98202.00;;;;4928708;28;20237;-86
2022/03/19 08:15:12;;;;;;;14.90;11.63;;;11.00;55.40;11.70;98199.00;;;;4914373;28;20279;-85
2022/03/19 08:17:41;;;;;;;15.23;11.20;;;11.20;55.40;11.90;98194.00;;;;4915205;28;20212;-85
2022/03/19 08:20:09;;;;;;;16.13;11.53;;;11.30;55.30;12.10;98188.00;;;;4914527;28;20292;-86
2022/03/19 08:22:38;;;;;;;15.57;10.47;;;11.50;54.40;12.30;98185.00;;;;4914402;28;20748;-85
2022/03/19 08:25:07;;;;;;;13.50;10.40;;;11.70;54.00;12.50;98178.00;;;;4918828;28;20227;-85
2022/03/19 08:27:34;;;;;;;14.13;10.57;;;11.80;53.40;12.70;98181.00;;;;4935410;28;20231;-84
2022/03/19 08:30:04;;;;;;;14.33;10.77;;;12.00;52.80;12.80;98183.00;;;;4940041;28;20200;-84
2022/03/19 08:32:32;;;;;;;16.33;10.97;;;12.20;52.40;13.00;98186.00;;;;4940371;28;20221;-84
2022/03/19 08:34:59;;;;;;;14.40;10.10;;;12.30;51.90;13.20;98188.00;;;;4939462;29;20282;-84
2022/03/19 08:37:27;;;;;;;13.50;10.43;;;12.50;51.30;13.40;98189.00;;;;4940455;29;20216;-84
2022/03/19 08:42:40;;;;;;;12.80;10.77;;;12.80;51.10;14.00;98201.00;;;;4941780;28;20258;-84
2022/03/19 08:45:12;;;;;;;12.87;9.50;;;13.00;50.40;14.30;98195.00;;;;4940645;28;20717;-84
2022/03/19 08:47:39;;;;;;;12.43;9.53;;;13.20;50.70;14.50;98197.00;;;;4940324;29;20266;-84
2022/03/19 08:50:08;;;;;;;10.97;9.20;;;13.40;50.60;14.80;98192.00;;;;4941289;28;20205;-84
2022/03/19 08:52:36;;;;;;;14.70;10.67;;;13.60;50.70;15.10;98198.00;;;;4941347;28;20643;-84
2022/03/19 08:55:05;;;;;;;13.80;10.20;;;13.80;50.20;15.30;98201.00;;;;4937280;28;20221;-85
2022/03/19 08:57:32;;;;;;;13.23;10.80;;;14.10;50.40;15.60;98191.00;;;;4936214;28;20201;-85
2022/03/19 09:00:01;;;;;;;13.07;10.07;;;14.30;50.10;15.90;98194.00;;;;4935899;28;20641;-85
2022/03/19 09:02:29;;;;;;;14.23;10.93;;;14.60;50.30;16.20;98192.00;;;;4935985;28;20251;-85
2022/03/19 09:04:56;;;;;;;13.87;10.63;;;14.90;49.70;16.40;98195.00;;;;4935930;28;20227;-85
2022/03/19 09:07:24;;;;;;;13.20;10.60;;;15.20;49.70;16.70;98197.00;;;;4935895;28;20669;-85
2022/03/19 09:09:52;;;;;;;13.37;10.50;;;15.60;49.50;16.90;98190.00;;;;4936196;28;20219;-85
2022/03/19 09:12:26;;;;;;;11.97;9.43;;;16.00;49.00;17.20;98193.00;;;;4932736;28;20229;-85
2022/03/19 09:14:54;;;;;;;15.63;10.30;;;16.50;48.60;17.40;98188.00;;;;4915960;29;20221;-85
2022/03/19 09:17:22;;;;;;;12.57;10.07;;;16.90;47.70;17.60;98185.00;;;;4916837;28;20667;-85
2022/03/19 09:19:52;;;;;;;12.00;10.00;;;17.30;47.40;17.80;98187.00;;;;4916825;28;20213;-85
2022/03/19 09:22:19;;;;;;;11.93;9.43;;;17.70;46.70;18.00;98179.00;;;;4916229;28;20201;-85
2022/03/19 09:24:46;;;;;;;10.00;8.87;;;18.10;46.20;18.20;98178.00;;;;4915677;28;20233;-85
2022/03/19 09:27:14;;;;;;;11.43;9.83;;;18.50;45.10;18.40;98179.00;;;;4916470;28;20263;-85
2022/03/19 09:29:42;;;;;;;11.10;9.57;;;18.80;44.80;18.60;98181.00;;;;4917015;28;20237;-84
2022/03/19 09:32:11;;;;;;;15.43;10.30;;;19.10;43.90;18.80;98185.00;;;;4917154;29;20233;-85
2022/03/19 09:34:39;;;;;;;12.53;10.23;;;19.30;43.80;18.90;98173.00;;;;4917938;28;20225;-85
2022/03/19 09:37:08;;;;;;;12.60;10.00;;;19.50;43.30;19.00;98173.00;;;;4916707;28;20205;-85
2022/03/19 09:39:35;;;;;;;11.20;9.47;;;19.60;42.80;19.20;98172.00;;;;4916473;28;20292;-85
2022/03/19 09:42:05;;;;;;;14.93;10.47;;;19.70;42.30;19.30;98169.00;;;;4916792;28;20577;-85
2022/03/19 09:44:34;;;;;;;12.43;10.30;;;19.80;42.30;19.40;98159.00;;;;4915949;29;20271;-84
2022/03/19 09:47:08;;;;;;;15.40;11.27;;;19.90;42.10;19.50;98152.00;;;;4916350;28;20205;-84
2022/03/19 09:49:35;;;;;;;11.93;9.43;;;19.90;41.70;19.50;98153.00;;;;4916447;29;20217;-85
2022/03/19 09:52:05;;;;;;;12.67;10.40;;;19.90;41.40;19.50;98151.00;;;;4915783;28;20229;-85
2022/03/19 09:54:38;;;;;;;14.77;9.93;;;19.90;39.70;19.50;98153.00;;;;4916158;28;20304;-85
2022/03/19 09:57:06;;;;;;;11.73;9.87;;;19.90;39.30;19.50;98155.00;;;;4915287;28;20266;-85
2022/03/19 09:59:37;;;;;;;11.20;9.73;;;19.80;39.70;19.50;98145.00;;;;4914745;28;20201;-85
2022/03/19 10:02:07;;;;;;;11.50;10.10;;;19.80;39.40;19.50;98145.00;;;;4915743;29;20287;-85
2022/03/19 10:04:35;;;;;;;13.67;10.27;;;19.70;39.50;19.40;98141.00;;;;4915196;28;20662;-85
2022/03/19 10:09:50;;;;;;;12.43;10.10;;;19.50;37.90;19.00;98120.00;;;;4905339;28;20197;-85
2022/03/19 10:12:20;;;;;;;11.03;9.80;;;19.30;37.80;18.80;98135.00;;;;4917960;29;20293;-85
2022/03/19 10:14:54;;;;;;;11.60;9.23;;;19.10;38.60;18.80;98117.00;;;;4935250;29;20697;-85
2022/03/19 10:17:30;;;;;;;11.67;9.47;;;19.00;38.10;18.70;98120.00;;;;4935439;29;20240;-85
2022/03/19 10:20:04;;;;;;;11.53;9.30;;;18.90;38.90;18.60;98117.00;;;;4935416;28;20204;-85
2022/03/19 10:22:34;;;;;;;11.93;9.90;;;18.80;39.20;18.60;98123.00;;;;4934980;28;20493;-84
2022/03/19 10:25:08;;;;;;;10.70;9.17;;;18.80;39.40;18.60;98114.00;;;;4934640;29;20315;-85
2022/03/19 10:27:37;;;;;;;14.43;9.53;;;18.70;39.60;18.70;98117.00;;;;4934731;28;20205;-85
2022/03/19 10:30:16;;;;;;;12.87;9.63;;;18.70;39.80;18.80;98107.00;;;;4934971;28;20212;-85
2022/03/19 10:32:48;;;;;;;12.17;9.57;;;18.80;39.60;18.90;98105.00;;;;4935004;28;20228;-85
2022/03/19 10:35:29;;;;;;;11.47;9.57;;;18.90;40.10;19.10;98105.00;;;;4935191;29;20220;-85
2022/03/19 10:37:57;;;;;;;11.17;8.93;;;19.10;40.20;19.30;98099.00;;;;4936016;28;20502;-85
2022/03/19 10:40:38;;;;;;;13.50;9.97;;;19.30;40.70;19.50;98093.00;;;;4934351;28;20208;-85
2022/03/19 10:43:07;;;;;;;11.60;9.43;;;19.50;39.80;19.60;98092.00;;;;4926425;28;20690;-85
2022/03/19 10:45:35;;;;;;;12.57;10.43;;;19.70;39.70;19.70;98089.00;;;;4915675;28;20226;-85
2022/03/19 10:48:06;;;;;;;11.03;9.60;;;19.80;38.10;19.60;98079.00;;;;4917076;29;20201;-85
2022/03/19 10:50:39;;;;;;;11.30;9.53;;;19.80;38.30;19.60;98079.00;;;;4918785;29;20253;-85
2022/03/19 10:53:11;;;;;;;10.70;8.53;;;19.90;38.00;19.50;98064.00;;;;4917731;29;20248;-85
2022/03/19 10:55:42;;;;;;;12.40;9.47;;;19.90;38.20;19.50;98061.00;;;;4917817;29;20540;-85
2022/03/19 10:58:10;;;;;;;11.57;9.47;;;19.80;37.10;19.40;98061.00;;;;4918127;29;20760;-85
2022/03/19 11:00:38;;;;;;;11.30;8.60;;;19.70;37.40;19.30;98056.00;;;;4917849;29;20237;-85
2022/03/19 11:03:13;;;;;;;11.37;9.00;;;19.60;37.40;19.10;98051.00;;;;4918129;28;20225;-86
2022/03/19 11:05:42;;;;;;;11.10;8.77;;;19.50;36.60;18.90;98045.00;;;;4918950;29;20621;-85
2022/03/19 11:08:11;;;;;;;10.23;8.97;;;19.30;36.80;18.70;98036.00;;;;4918520;28;20212;-85
2022/03/19 11:10:43;;;;;;;12.03;8.80;;;19.00;36.40;18.40;98028.00;;;;4917843;29;20281;-85
2022/03/19 11:13:20;;;;;;;12.00;8.90;;;18.80;35.50;18.20;98022.00;;;;4926551;29;20311;-85